sensor_id;sensor_type;location;lat;lon;timestamp;P1;durP1;ratioP1;P2;durP2;ratioP2
15764;SDS011;7983;50.744;7.086;2022-09-21T00:03:33;3.53;;;2.03;;
15764;SDS011;7983;50.744;7.086;2022-09-21T00:06:06;4.47;;;2.00;;
15764;SDS011;7983;50.744;7.086;2022-09-21T00:08:37;3.75;;;2.10;;
15764;SDS011;7983;50.744;7.086;2022-09-21T00:11:05;2.28;;;1.90;;
15764;SDS011;7983;50.744;7.086;2022-09-21T00:13:32;4.20;;;2.20;;
15764;SDS011;7983;50.744;7.086;2022-09-21T00:16:03;2.30;;;1.73;;
15764;SDS011;7983;50.744;7.086;2022-09-21T00:18:31;4.37;;;2.10;;
15764;SDS011;7983;50.744;7.086;2022-09-21T00:20:57;4.10;;;1.92;;
15764;SDS011;7983;50.744;7.086;2022-09-21T00:23:26;4.47;;;2.08;;
15764;SDS011;7983;50.744;7.086;2022-09-21T00:25:52;2.33;;;1.80;;
15764;SDS011;7983;50.744;7.086;2022-09-21T00:28:29;2.08;;;1.80;;
15764;SDS011;7983;50.744;7.086;2022-09-21T00:30:59;2.17;;;1.60;;
15764;SDS011;7983;50.744;7.086;2022-09-21T00:33:26;2.60;;;1.70;;
15764;SDS011;7983;50.744;7.086;2022-09-21T00:35:51;2.90;;;1.73;;
15764;SDS011;7983;50.744;7.086;2022-09-21T00:38:19;3.88;;;1.77;;
15764;SDS011;7983;50.744;7.086;2022-09-21T00:40:45;3.87;;;1.73;;
15764;SDS011;7983;50.744;7.086;2022-09-21T00:43:14;2.63;;;1.73;;
15764;SDS011;7983;50.744;7.086;2022-09-21T00:45:43;3.80;;;1.73;;
15764;SDS011;7983;50.744;7.086;2022-09-21T00:48:14;2.77;;;1.83;;
15764;SDS011;7983;50.744;7.086;2022-09-21T00:50:41;4.20;;;1.80;;
15764;SDS011;7983;50.744;7.086;2022-09-21T00:53:12;4.50;;;1.90;;
15764;SDS011;7983;50.744;7.086;2022-09-21T00:55:46;2.67;;;2.00;;
15764;SDS011;7983;50.744;7.086;2022-09-21T00:58:16;2.77;;;2.10;;
15764;SDS011;7983;50.744;7.086;2022-09-21T01:00:48;2.90;;;1.77;;
15764;SDS011;7983;50.744;7.086;2022-09-21T01:03:13;2.10;;;1.80;;
15764;SDS011;7983;50.744;7.086;2022-09-21T01:05:39;3.47;;;2.10;;
15764;SDS011;7983;50.744;7.086;2022-09-21T01:08:05;4.67;;;2.30;;
15764;SDS011;7983;50.744;7.086;2022-09-21T01:10:45;3.05;;;1.77;;
15764;SDS011;7983;50.744;7.086;2022-09-21T01:19:44;1.90;;;1.70;;
15764;SDS011;7983;50.744;7.086;2022-09-21T01:22:05;2.20;;;1.70;;
15764;SDS011;7983;50.744;7.086;2022-09-21T01:30:02;4.17;;;2.07;;
15764;SDS011;7983;50.744;7.086;2022-09-21T01:32:38;2.93;;;1.90;;
15764;SDS011;7983;50.744;7.086;2022-09-21T01:35:09;3.87;;;1.80;;
15764;SDS011;7983;50.744;7.086;2022-09-21T01:37:46;4.03;;;2.00;;
15764;SDS011;7983;50.744;7.086;2022-09-21T01:40:30;5.77;;;2.00;;
15764;SDS011;7983;50.744;7.086;2022-09-21T01:43:01;2.17;;;1.80;;
15764;SDS011;7983;50.744;7.086;2022-09-21T01:45:30;3.37;;;2.00;;
15764;SDS011;7983;50.744;7.086;2022-09-21T01:47:59;2.37;;;1.80;;
15764;SDS011;7983;50.744;7.086;2022-09-21T01:50:30;3.87;;;2.10;;
15764;SDS011;7983;50.744;7.086;2022-09-21T01:53:05;5.17;;;1.90;;
15764;SDS011;7983;50.744;7.086;2022-09-21T01:55:46;2.03;;;1.60;;
15764;SDS011;7983;50.744;7.086;2022-09-21T01:58:21;2.50;;;1.70;;
15764;SDS011;7983;50.744;7.086;2022-09-21T02:00:49;2.47;;;1.80;;
15764;SDS011;7983;50.744;7.086;2022-09-21T02:03:20;2.17;;;1.80;;
15764;SDS011;7983;50.744;7.086;2022-09-21T02:05:55;2.17;;;1.80;;
15764;SDS011;7983;50.744;7.086;2022-09-21T02:08:22;2.50;;;1.60;;
15764;SDS011;7983;50.744;7.086;2022-09-21T02:10:52;2.73;;;1.80;;
15764;SDS011;7983;50.744;7.086;2022-09-21T02:13:19;2.00;;;1.60;;
15764;SDS011;7983;50.744;7.086;2022-09-21T02:21:07;4.03;;;1.93;;
15764;SDS011;7983;50.744;7.086;2022-09-21T02:23:56;2.77;;;1.80;;
15764;SDS011;7983;50.744;7.086;2022-09-21T02:26:44;2.27;;;1.73;;
15764;SDS011;7983;50.744;7.086;2022-09-21T02:32:27;2.57;;;1.70;;
15764;SDS011;7983;50.744;7.086;2022-09-21T02:35:18;2.53;;;1.70;;
15764;SDS011;7983;50.744;7.086;2022-09-21T02:43:09;3.73;;;2.20;;
15764;SDS011;7983;50.744;7.086;2022-09-21T02:45:46;4.17;;;2.40;;
15764;SDS011;7983;50.744;7.086;2022-09-21T02:48:23;4.10;;;2.50;;
15764;SDS011;7983;50.744;7.086;2022-09-21T02:50:58;2.70;;;2.30;;
15764;SDS011;7983;50.744;7.086;2022-09-21T02:53:31;3.20;;;2.20;;
15764;SDS011;7983;50.744;7.086;2022-09-21T02:56:01;3.63;;;2.30;;
15764;SDS011;7983;50.744;7.086;2022-09-21T02:58:31;3.30;;;2.40;;
15764;SDS011;7983;50.744;7.086;2022-09-21T03:01:04;4.40;;;2.20;;
15764;SDS011;7983;50.744;7.086;2022-09-21T03:03:34;2.37;;;2.17;;
15764;SDS011;7983;50.744;7.086;2022-09-21T03:06:00;4.63;;;2.53;;
15764;SDS011;7983;50.744;7.086;2022-09-21T03:08:29;5.33;;;3.20;;
15764;SDS011;7983;50.744;7.086;2022-09-21T03:10:54;3.43;;;2.40;;
15764;SDS011;7983;50.744;7.086;2022-09-21T03:13:21;3.47;;;2.27;;
15764;SDS011;7983;50.744;7.086;2022-09-21T03:15:57;5.10;;;2.20;;
15764;SDS011;7983;50.744;7.086;2022-09-21T03:18:27;5.67;;;2.03;;
15764;SDS011;7983;50.744;7.086;2022-09-21T03:20:58;2.13;;;1.83;;
15764;SDS011;7983;50.744;7.086;2022-09-21T03:23:24;2.40;;;1.90;;
15764;SDS011;7983;50.744;7.086;2022-09-21T03:25:52;3.40;;;1.80;;
15764;SDS011;7983;50.744;7.086;2022-09-21T03:28:18;3.57;;;1.90;;
15764;SDS011;7983;50.744;7.086;2022-09-21T03:30:46;3.53;;;2.07;;
15764;SDS011;7983;50.744;7.086;2022-09-21T03:33:16;3.03;;;2.07;;
15764;SDS011;7983;50.744;7.086;2022-09-21T03:35:43;2.87;;;2.00;;
15764;SDS011;7983;50.744;7.086;2022-09-21T03:38:11;3.30;;;2.00;;
15764;SDS011;7983;50.744;7.086;2022-09-21T03:40:37;3.30;;;2.10;;
15764;SDS011;7983;50.744;7.086;2022-09-21T03:43:05;2.40;;;2.10;;
15764;SDS011;7983;50.744;7.086;2022-09-21T03:45:30;3.13;;;2.00;;
15764;SDS011;7983;50.744;7.086;2022-09-21T03:47:56;2.97;;;1.70;;
15764;SDS011;7983;50.744;7.086;2022-09-21T03:50:26;3.93;;;2.30;;
15764;SDS011;7983;50.744;7.086;2022-09-21T03:52:55;3.50;;;2.00;;
15764;SDS011;7983;50.744;7.086;2022-09-21T03:55:25;3.87;;;2.60;;
15764;SDS011;7983;50.744;7.086;2022-09-21T03:57:51;4.97;;;2.53;;
15764;SDS011;7983;50.744;7.086;2022-09-21T04:00:19;2.90;;;2.10;;
15764;SDS011;7983;50.744;7.086;2022-09-21T04:02:46;3.30;;;2.40;;
15764;SDS011;7983;50.744;7.086;2022-09-21T04:05:12;3.67;;;2.40;;
15764;SDS011;7983;50.744;7.086;2022-09-21T04:07:40;3.90;;;3.00;;
15764;SDS011;7983;50.744;7.086;2022-09-21T04:10:10;5.67;;;3.13;;
15764;SDS011;7983;50.744;7.086;2022-09-21T04:12:40;4.60;;;3.27;;
15764;SDS011;7983;50.744;7.086;2022-09-21T04:15:07;4.67;;;3.50;;
15764;SDS011;7983;50.744;7.086;2022-09-21T04:17:42;6.20;;;4.07;;
15764;SDS011;7983;50.744;7.086;2022-09-21T04:20:08;5.73;;;4.10;;
15764;SDS011;7983;50.744;7.086;2022-09-21T04:22:34;13.07;;;8.37;;
15764;SDS011;7983;50.744;7.086;2022-09-21T04:25:00;14.13;;;10.27;;
15764;SDS011;7983;50.744;7.086;2022-09-21T04:27:30;8.40;;;6.53;;
15764;SDS011;7983;50.744;7.086;2022-09-21T04:29:59;6.47;;;4.90;;
15764;SDS011;7983;50.744;7.086;2022-09-21T04:32:26;6.17;;;4.90;;
15764;SDS011;7983;50.744;7.086;2022-09-21T04:34:52;5.73;;;4.43;;
15764;SDS011;7983;50.744;7.086;2022-09-21T04:37:18;9.13;;;7.17;;
15764;SDS011;7983;50.744;7.086;2022-09-21T04:39:43;7.17;;;5.90;;
15764;SDS011;7983;50.744;7.086;2022-09-21T04:42:09;5.90;;;4.60;;
15764;SDS011;7983;50.744;7.086;2022-09-21T04:44:35;6.27;;;4.30;;
15764;SDS011;7983;50.744;7.086;2022-09-21T04:47:01;5.03;;;4.00;;
15764;SDS011;7983;50.744;7.086;2022-09-21T04:49:29;5.50;;;4.33;;
15764;SDS011;7983;50.744;7.086;2022-09-21T04:51:54;5.87;;;4.10;;
15764;SDS011;7983;50.744;7.086;2022-09-21T04:54:22;24.40;;;4.67;;
15764;SDS011;7983;50.744;7.086;2022-09-21T04:56:48;5.70;;;4.13;;
15764;SDS011;7983;50.744;7.086;2022-09-21T04:59:16;5.93;;;4.53;;
15764;SDS011;7983;50.744;7.086;2022-09-21T05:01:42;6.47;;;4.33;;
15764;SDS011;7983;50.744;7.086;2022-09-21T05:04:08;7.07;;;4.67;;
15764;SDS011;7983;50.744;7.086;2022-09-21T05:06:33;4.70;;;4.00;;
15764;SDS011;7983;50.744;7.086;2022-09-21T05:09:03;8.73;;;5.37;;
15764;SDS011;7983;50.744;7.086;2022-09-21T05:11:50;6.13;;;4.17;;
15764;SDS011;7983;50.744;7.086;2022-09-21T05:14:20;5.67;;;3.97;;
15764;SDS011;7983;50.744;7.086;2022-09-21T05:16:46;4.93;;;4.10;;
15764;SDS011;7983;50.744;7.086;2022-09-21T05:19:13;5.93;;;4.60;;
15764;SDS011;7983;50.744;7.086;2022-09-21T05:21:43;6.80;;;4.37;;
15764;SDS011;7983;50.744;7.086;2022-09-21T05:24:10;6.73;;;4.67;;
15764;SDS011;7983;50.744;7.086;2022-09-21T05:26:36;6.83;;;4.73;;
15764;SDS011;7983;50.744;7.086;2022-09-21T05:29:02;5.97;;;4.57;;
15764;SDS011;7983;50.744;7.086;2022-09-21T05:36:44;9.07;;;5.03;;
15764;SDS011;7983;50.744;7.086;2022-09-21T05:39:15;7.30;;;4.13;;
15764;SDS011;7983;50.744;7.086;2022-09-21T05:41:41;8.57;;;4.60;;
15764;SDS011;7983;50.744;7.086;2022-09-21T05:44:12;6.97;;;3.87;;
15764;SDS011;7983;50.744;7.086;2022-09-21T05:49:10;5.47;;;4.70;;
15764;SDS011;7983;50.744;7.086;2022-09-21T05:51:46;5.37;;;4.30;;
15764;SDS011;7983;50.744;7.086;2022-09-21T05:56:51;7.80;;;5.00;;
15764;SDS011;7983;50.744;7.086;2022-09-21T06:05:06;7.00;;;5.30;;
15764;SDS011;7983;50.744;7.086;2022-09-21T06:07:35;6.20;;;4.73;;
15764;SDS011;7983;50.744;7.086;2022-09-21T06:10:01;13.53;;;5.37;;
15764;SDS011;7983;50.744;7.086;2022-09-21T06:12:27;8.43;;;5.10;;
15764;SDS011;7983;50.744;7.086;2022-09-21T06:14:52;7.03;;;5.10;;
15764;SDS011;7983;50.744;7.086;2022-09-21T06:17:19;6.50;;;5.33;;
15764;SDS011;7983;50.744;7.086;2022-09-21T06:19:45;8.03;;;5.70;;
15764;SDS011;7983;50.744;7.086;2022-09-21T06:22:11;7.27;;;5.30;;
15764;SDS011;7983;50.744;7.086;2022-09-21T06:24:38;16.13;;;11.27;;
15764;SDS011;7983;50.744;7.086;2022-09-21T06:27:04;10.07;;;7.67;;
15764;SDS011;7983;50.744;7.086;2022-09-21T06:29:32;10.37;;;7.17;;
15764;SDS011;7983;50.744;7.086;2022-09-21T06:31:57;8.43;;;6.03;;
15764;SDS011;7983;50.744;7.086;2022-09-21T06:34:23;10.87;;;5.53;;
15764;SDS011;7983;50.744;7.086;2022-09-21T06:36:51;6.87;;;5.10;;
15764;SDS011;7983;50.744;7.086;2022-09-21T06:39:17;9.70;;;5.53;;
15764;SDS011;7983;50.744;7.086;2022-09-21T06:41:45;7.40;;;5.63;;
15764;SDS011;7983;50.744;7.086;2022-09-21T06:44:12;9.33;;;5.67;;
15764;SDS011;7983;50.744;7.086;2022-09-21T06:46:38;7.37;;;5.37;;
15764;SDS011;7983;50.744;7.086;2022-09-21T06:49:06;7.80;;;5.73;;
15764;SDS011;7983;50.744;7.086;2022-09-21T06:51:31;10.80;;;5.97;;
15764;SDS011;7983;50.744;7.086;2022-09-21T06:53:57;8.23;;;6.10;;
15764;SDS011;7983;50.744;7.086;2022-09-21T06:56:23;11.87;;;6.60;;
15764;SDS011;7983;50.744;7.086;2022-09-21T06:58:50;8.50;;;6.00;;
15764;SDS011;7983;50.744;7.086;2022-09-21T07:01:19;8.73;;;6.00;;
15764;SDS011;7983;50.744;7.086;2022-09-21T07:03:47;8.13;;;6.17;;
15764;SDS011;7983;50.744;7.086;2022-09-21T07:06:17;7.30;;;5.90;;
15764;SDS011;7983;50.744;7.086;2022-09-21T07:08:45;7.97;;;6.07;;
15764;SDS011;7983;50.744;7.086;2022-09-21T07:11:12;7.75;;;6.10;;
15764;SDS011;7983;50.744;7.086;2022-09-21T07:13:38;10.27;;;7.70;;
15764;SDS011;7983;50.744;7.086;2022-09-21T07:16:05;8.93;;;7.05;;
15764;SDS011;7983;50.744;7.086;2022-09-21T07:18:32;9.50;;;6.75;;
15764;SDS011;7983;50.744;7.086;2022-09-21T07:21:04;7.75;;;6.63;;
15764;SDS011;7983;50.744;7.086;2022-09-21T07:23:33;9.70;;;7.57;;
15764;SDS011;7983;50.744;7.086;2022-09-21T07:26:03;8.80;;;7.70;;
15764;SDS011;7983;50.744;7.086;2022-09-21T07:28:38;9.65;;;7.45;;
15764;SDS011;7983;50.744;7.086;2022-09-21T07:31:05;9.88;;;7.60;;
15764;SDS011;7983;50.744;7.086;2022-09-21T07:33:40;9.45;;;7.68;;
15764;SDS011;7983;50.744;7.086;2022-09-21T07:36:10;9.00;;;7.40;;
15764;SDS011;7983;50.744;7.086;2022-09-21T07:38:44;12.60;;;9.23;;
15764;SDS011;7983;50.744;7.086;2022-09-21T07:41:10;9.63;;;8.37;;
15764;SDS011;7983;50.744;7.086;2022-09-21T07:43:38;9.25;;;7.50;;
15764;SDS011;7983;50.744;7.086;2022-09-21T07:46:07;12.63;;;8.73;;
15764;SDS011;7983;50.744;7.086;2022-09-21T07:48:34;9.77;;;8.30;;
15764;SDS011;7983;50.744;7.086;2022-09-21T07:51:00;10.45;;;8.68;;
15764;SDS011;7983;50.744;7.086;2022-09-21T07:53:30;13.10;;;8.73;;
15764;SDS011;7983;50.744;7.086;2022-09-21T07:56:00;9.90;;;8.32;;
15764;SDS011;7983;50.744;7.086;2022-09-21T07:58:30;9.80;;;8.00;;
15764;SDS011;7983;50.744;7.086;2022-09-21T08:01:14;12.73;;;9.75;;
15764;SDS011;7983;50.744;7.086;2022-09-21T08:03:40;10.85;;;8.98;;
15764;SDS011;7983;50.744;7.086;2022-09-21T08:06:08;11.40;;;8.32;;
15764;SDS011;7983;50.744;7.086;2022-09-21T08:08:34;9.85;;;8.40;;
15764;SDS011;7983;50.744;7.086;2022-09-21T08:11:04;11.13;;;8.52;;
15764;SDS011;7983;50.744;7.086;2022-09-21T08:13:30;13.18;;;9.68;;
15764;SDS011;7983;50.744;7.086;2022-09-21T08:15:56;13.52;;;9.20;;
15764;SDS011;7983;50.744;7.086;2022-09-21T08:18:28;11.60;;;10.02;;
15764;SDS011;7983;50.744;7.086;2022-09-21T08:20:57;12.43;;;10.20;;
15764;SDS011;7983;50.744;7.086;2022-09-21T08:23:24;12.07;;;9.88;;
15764;SDS011;7983;50.744;7.086;2022-09-21T08:25:56;10.88;;;9.35;;
15764;SDS011;7983;50.744;7.086;2022-09-21T08:28:26;12.45;;;9.18;;
15764;SDS011;7983;50.744;7.086;2022-09-21T08:30:52;14.48;;;9.57;;
15764;SDS011;7983;50.744;7.086;2022-09-21T08:33:18;12.57;;;9.75;;
15764;SDS011;7983;50.744;7.086;2022-09-21T08:35:50;11.52;;;9.00;;
15764;SDS011;7983;50.744;7.086;2022-09-21T08:38:22;9.65;;;8.60;;
15764;SDS011;7983;50.744;7.086;2022-09-21T08:40:49;9.23;;;7.63;;
15764;SDS011;7983;50.744;7.086;2022-09-21T08:43:30;8.02;;;7.20;;
15764;SDS011;7983;50.744;7.086;2022-09-21T08:46:06;9.52;;;8.30;;
15764;SDS011;7983;50.744;7.086;2022-09-21T08:48:42;9.88;;;7.90;;
15764;SDS011;7983;50.744;7.086;2022-09-21T08:51:19;11.18;;;7.90;;
15764;SDS011;7983;50.744;7.086;2022-09-21T08:53:49;9.35;;;7.95;;
15764;SDS011;7983;50.744;7.086;2022-09-21T08:56:23;9.98;;;7.68;;
15764;SDS011;7983;50.744;7.086;2022-09-21T08:58:50;9.43;;;8.07;;
15764;SDS011;7983;50.744;7.086;2022-09-21T09:09:40;9.55;;;7.47;;
15764;SDS011;7983;50.744;7.086;2022-09-21T09:15:16;9.88;;;7.05;;
15764;SDS011;7983;50.744;7.086;2022-09-21T09:18:08;9.95;;;7.57;;
15764;SDS011;7983;50.744;7.086;2022-09-21T09:23:12;8.48;;;6.93;;
15764;SDS011;7983;50.744;7.086;2022-09-21T09:25:45;7.57;;;6.43;;
15764;SDS011;7983;50.744;7.086;2022-09-21T09:31:27;6.82;;;5.28;;
15764;SDS011;7983;50.744;7.086;2022-09-21T09:33:58;6.80;;;5.72;;
15764;SDS011;7983;50.744;7.086;2022-09-21T09:36:47;7.07;;;5.22;;
15764;SDS011;7983;50.744;7.086;2022-09-21T09:39:18;8.30;;;5.22;;
15764;SDS011;7983;50.744;7.086;2022-09-21T09:41:46;8.27;;;5.25;;
15764;SDS011;7983;50.744;7.086;2022-09-21T09:50:03;4.25;;;3.85;;
15764;SDS011;7983;50.744;7.086;2022-09-21T09:52:38;4.97;;;3.47;;
15764;SDS011;7983;50.744;7.086;2022-09-21T09:55:17;5.40;;;3.67;;
15764;SDS011;7983;50.744;7.086;2022-09-21T09:57:47;4.63;;;3.78;;
15764;SDS011;7983;50.744;7.086;2022-09-21T10:00:14;5.30;;;3.47;;
15764;SDS011;7983;50.744;7.086;2022-09-21T10:02:53;4.60;;;3.15;;
15764;SDS011;7983;50.744;7.086;2022-09-21T10:07:50;5.38;;;3.33;;
15764;SDS011;7983;50.744;7.086;2022-09-21T10:15:29;3.13;;;2.67;;
15764;SDS011;7983;50.744;7.086;2022-09-21T10:18:05;4.32;;;2.80;;
15764;SDS011;7983;50.744;7.086;2022-09-21T10:20:42;3.38;;;2.30;;
15764;SDS011;7983;50.744;7.086;2022-09-21T10:23:36;3.17;;;2.03;;
15764;SDS011;7983;50.744;7.086;2022-09-21T10:26:11;2.80;;;1.60;;
15764;SDS011;7983;50.744;7.086;2022-09-21T10:28:53;2.33;;;1.75;;
15764;SDS011;7983;50.744;7.086;2022-09-21T10:31:25;3.13;;;1.80;;
15764;SDS011;7983;50.744;7.086;2022-09-21T10:38:53;2.50;;;1.52;;
15764;SDS011;7983;50.744;7.086;2022-09-21T10:41:19;2.28;;;1.45;;
15764;SDS011;7983;50.744;7.086;2022-09-21T10:43:44;2.30;;;1.55;;
15764;SDS011;7983;50.744;7.086;2022-09-21T10:46:10;2.50;;;1.50;;
15764;SDS011;7983;50.744;7.086;2022-09-21T10:48:38;2.55;;;1.70;;
15764;SDS011;7983;50.744;7.086;2022-09-21T10:51:19;3.95;;;1.40;;
15764;SDS011;7983;50.744;7.086;2022-09-21T10:53:53;3.15;;;1.50;;
15764;SDS011;7983;50.744;7.086;2022-09-21T10:56:21;2.90;;;1.45;;
15764;SDS011;7983;50.744;7.086;2022-09-21T11:01:45;1.55;;;1.02;;
15764;SDS011;7983;50.744;7.086;2022-09-21T11:07:11;4.55;;;1.30;;
15764;SDS011;7983;50.744;7.086;2022-09-21T11:09:45;2.05;;;1.42;;
15764;SDS011;7983;50.744;7.086;2022-09-21T11:12:19;3.67;;;1.50;;
15764;SDS011;7983;50.744;7.086;2022-09-21T11:17:47;2.70;;;1.55;;
15764;SDS011;7983;50.744;7.086;2022-09-21T11:20:42;2.47;;;1.33;;
15764;SDS011;7983;50.744;7.086;2022-09-21T11:28:56;2.17;;;1.33;;
15764;SDS011;7983;50.744;7.086;2022-09-21T11:31:40;3.63;;;1.30;;
15764;SDS011;7983;50.744;7.086;2022-09-21T11:45:06;1.65;;;1.20;;
15764;SDS011;7983;50.744;7.086;2022-09-21T11:47:51;0.95;;;0.80;;
15764;SDS011;7983;50.744;7.086;2022-09-21T11:50:46;1.63;;;1.10;;
15764;SDS011;7983;50.744;7.086;2022-09-21T11:56:11;1.30;;;0.90;;
15764;SDS011;7983;50.744;7.086;2022-09-21T12:10:05;1.50;;;0.88;;
15764;SDS011;7983;50.744;7.086;2022-09-21T12:15:37;2.05;;;1.00;;
15764;SDS011;7983;50.744;7.086;2022-09-21T12:18:17;1.88;;;0.98;;
15764;SDS011;7983;50.744;7.086;2022-09-21T12:21:14;2.53;;;1.00;;
15764;SDS011;7983;50.744;7.086;2022-09-21T12:23:48;2.13;;;0.90;;
15764;SDS011;7983;50.744;7.086;2022-09-21T12:26:18;1.83;;;0.80;;
15764;SDS011;7983;50.744;7.086;2022-09-21T12:28:49;0.80;;;0.75;;
15764;SDS011;7983;50.744;7.086;2022-09-21T12:31:38;2.28;;;0.95;;
15764;SDS011;7983;50.744;7.086;2022-09-21T12:39:31;1.67;;;0.80;;
15764;SDS011;7983;50.744;7.086;2022-09-21T12:44:38;1.88;;;0.75;;
15764;SDS011;7983;50.744;7.086;2022-09-21T12:47:19;1.55;;;0.75;;
15764;SDS011;7983;50.744;7.086;2022-09-21T12:50:15;0.90;;;0.43;;
15764;SDS011;7983;50.744;7.086;2022-09-21T12:52:44;1.92;;;0.80;;
15764;SDS011;7983;50.744;7.086;2022-09-21T12:55:20;1.15;;;0.65;;
15764;SDS011;7983;50.744;7.086;2022-09-21T12:57:59;1.25;;;0.70;;
15764;SDS011;7983;50.744;7.086;2022-09-21T13:03:33;1.23;;;0.60;;
15764;SDS011;7983;50.744;7.086;2022-09-21T13:06:18;1.02;;;0.40;;
15764;SDS011;7983;50.744;7.086;2022-09-21T13:09:09;1.05;;;0.50;;
15764;SDS011;7983;50.744;7.086;2022-09-21T13:11:46;1.33;;;0.60;;
15764;SDS011;7983;50.744;7.086;2022-09-21T13:14:25;1.38;;;0.70;;
15764;SDS011;7983;50.744;7.086;2022-09-21T13:16:58;0.80;;;0.50;;
15764;SDS011;7983;50.744;7.086;2022-09-21T13:19:29;1.05;;;0.68;;
15764;SDS011;7983;50.744;7.086;2022-09-21T13:24:47;0.98;;;0.60;;
15764;SDS011;7983;50.744;7.086;2022-09-21T13:30:40;0.88;;;0.50;;
15764;SDS011;7983;50.744;7.086;2022-09-21T13:54:47;1.38;;;0.45;;
15764;SDS011;7983;50.744;7.086;2022-09-21T14:05:46;0.93;;;0.60;;
15764;SDS011;7983;50.744;7.086;2022-09-21T14:08:01;1.77;;;0.60;;
15764;SDS011;7983;50.744;7.086;2022-09-21T14:27:19;1.17;;;0.50;;
15764;SDS011;7983;50.744;7.086;2022-09-21T14:29:52;0.55;;;0.30;;
15764;SDS011;7983;50.744;7.086;2022-09-21T14:32:32;1.85;;;0.70;;
15764;SDS011;7983;50.744;7.086;2022-09-21T14:35:18;2.20;;;0.80;;
15764;SDS011;7983;50.744;7.086;2022-09-21T14:37:56;1.80;;;1.00;;
15764;SDS011;7983;50.744;7.086;2022-09-21T14:42:55;1.65;;;1.08;;
15764;SDS011;7983;50.744;7.086;2022-09-21T14:48:23;1.63;;;0.68;;
15764;SDS011;7983;50.744;7.086;2022-09-21T14:53:52;0.65;;;0.40;;
15764;SDS011;7983;50.744;7.086;2022-09-21T14:59:43;1.05;;;0.60;;
15764;SDS011;7983;50.744;7.086;2022-09-21T15:02:28;1.17;;;0.98;;
15764;SDS011;7983;50.744;7.086;2022-09-21T15:10:47;0.77;;;0.60;;
15764;SDS011;7983;50.744;7.086;2022-09-21T15:21:46;7.85;;;6.75;;
15764;SDS011;7983;50.744;7.086;2022-09-21T15:24:21;4.50;;;2.38;;
15764;SDS011;7983;50.744;7.086;2022-09-21T15:26:54;1.90;;;1.70;;
15764;SDS011;7983;50.744;7.086;2022-09-21T15:29:34;1.58;;;1.10;;
15764;SDS011;7983;50.744;7.086;2022-09-21T15:32:06;1.13;;;0.80;;
15764;SDS011;7983;50.744;7.086;2022-09-21T15:34:33;5.03;;;3.72;;
15764;SDS011;7983;50.744;7.086;2022-09-21T15:37:06;2.28;;;2.03;;
15764;SDS011;7983;50.744;7.086;2022-09-21T15:39:45;1.70;;;1.40;;
15764;SDS011;7983;50.744;7.086;2022-09-21T15:42:25;11.93;;;10.05;;
15764;SDS011;7983;50.744;7.086;2022-09-21T15:44:53;5.05;;;3.55;;
15764;SDS011;7983;50.744;7.086;2022-09-21T15:47:34;2.08;;;1.77;;
15764;SDS011;7983;50.744;7.086;2022-09-21T15:50:10;1.92;;;1.33;;
15764;SDS011;7983;50.744;7.086;2022-09-21T15:52:50;2.38;;;1.25;;
15764;SDS011;7983;50.744;7.086;2022-09-21T15:55:22;1.50;;;0.85;;
15764;SDS011;7983;50.744;7.086;2022-09-21T15:57:48;0.80;;;0.60;;
15764;SDS011;7983;50.744;7.086;2022-09-21T16:00:18;19.70;;;15.15;;
15764;SDS011;7983;50.744;7.086;2022-09-21T16:05:32;8.30;;;7.07;;
15764;SDS011;7983;50.744;7.086;2022-09-21T16:10:50;3.58;;;3.00;;
15764;SDS011;7983;50.744;7.086;2022-09-21T16:13:22;2.65;;;2.00;;
15764;SDS011;7983;50.744;7.086;2022-09-21T16:16:08;1.85;;;1.30;;
15764;SDS011;7983;50.744;7.086;2022-09-21T16:18:39;1.52;;;1.20;;
15764;SDS011;7983;50.744;7.086;2022-09-21T16:23:44;0.90;;;0.70;;
15764;SDS011;7983;50.744;7.086;2022-09-21T16:26:19;1.08;;;0.57;;
15764;SDS011;7983;50.744;7.086;2022-09-21T16:28:47;0.90;;;0.68;;
15764;SDS011;7983;50.744;7.086;2022-09-21T16:31:21;1.00;;;0.70;;
15764;SDS011;7983;50.744;7.086;2022-09-21T16:38:53;24.35;;;17.08;;
15764;SDS011;7983;50.744;7.086;2022-09-21T16:41:29;12.32;;;9.75;;
15764;SDS011;7983;50.744;7.086;2022-09-21T16:44:03;6.05;;;4.95;;
15764;SDS011;7983;50.744;7.086;2022-09-21T16:46:29;5.00;;;3.17;;
15764;SDS011;7983;50.744;7.086;2022-09-21T16:49:00;3.00;;;1.85;;
15764;SDS011;7983;50.744;7.086;2022-09-21T16:51:28;1.60;;;1.27;;
15764;SDS011;7983;50.744;7.086;2022-09-21T16:53:56;1.45;;;1.10;;
15764;SDS011;7983;50.744;7.086;2022-09-21T16:56:24;2.10;;;1.42;;
15764;SDS011;7983;50.744;7.086;2022-09-21T16:58:51;10.70;;;8.13;;
15764;SDS011;7983;50.744;7.086;2022-09-21T17:01:17;10.77;;;9.07;;
15764;SDS011;7983;50.744;7.086;2022-09-21T17:03:46;9.20;;;6.45;;
15764;SDS011;7983;50.744;7.086;2022-09-21T17:06:20;4.20;;;3.35;;
15764;SDS011;7983;50.744;7.086;2022-09-21T17:08:47;3.30;;;2.67;;
15764;SDS011;7983;50.744;7.086;2022-09-21T17:11:17;2.17;;;1.63;;
15764;SDS011;7983;50.744;7.086;2022-09-21T17:13:50;1.92;;;1.35;;
15764;SDS011;7983;50.744;7.086;2022-09-21T17:16:17;1.90;;;1.20;;
15764;SDS011;7983;50.744;7.086;2022-09-21T17:18:44;5.40;;;4.13;;
15764;SDS011;7983;50.744;7.086;2022-09-21T17:21:11;6.97;;;5.20;;
15764;SDS011;7983;50.744;7.086;2022-09-21T17:23:36;12.80;;;9.10;;
15764;SDS011;7983;50.744;7.086;2022-09-21T17:26:03;6.40;;;4.90;;
15764;SDS011;7983;50.744;7.086;2022-09-21T17:28:37;4.28;;;3.35;;
15764;SDS011;7983;50.744;7.086;2022-09-21T17:31:03;4.18;;;2.40;;
15764;SDS011;7983;50.744;7.086;2022-09-21T17:33:31;3.40;;;1.98;;
15764;SDS011;7983;50.744;7.086;2022-09-21T17:36:02;3.10;;;2.00;;
15764;SDS011;7983;50.744;7.086;2022-09-21T17:38:30;1.75;;;1.40;;
15764;SDS011;7983;50.744;7.086;2022-09-21T17:40:56;2.40;;;1.30;;
15764;SDS011;7983;50.744;7.086;2022-09-21T17:43:35;2.38;;;1.40;;
15764;SDS011;7983;50.744;7.086;2022-09-21T17:46:06;2.05;;;1.33;;
15764;SDS011;7983;50.744;7.086;2022-09-21T17:48:35;4.53;;;2.42;;
15764;SDS011;7983;50.744;7.086;2022-09-21T17:51:06;3.30;;;2.20;;
15764;SDS011;7983;50.744;7.086;2022-09-21T17:53:32;2.55;;;1.85;;
15764;SDS011;7983;50.744;7.086;2022-09-21T17:55:59;3.20;;;1.83;;
15764;SDS011;7983;50.744;7.086;2022-09-21T18:03:48;2.00;;;1.30;;
15764;SDS011;7983;50.744;7.086;2022-09-21T18:06:14;2.05;;;1.30;;
15764;SDS011;7983;50.744;7.086;2022-09-21T18:08:42;2.63;;;1.35;;
15764;SDS011;7983;50.744;7.086;2022-09-21T18:21:21;2.75;;;1.20;;
15764;SDS011;7983;50.744;7.086;2022-09-21T18:26:20;2.25;;;1.20;;
15764;SDS011;7983;50.744;7.086;2022-09-21T18:28:48;2.60;;;1.10;;
15764;SDS011;7983;50.744;7.086;2022-09-21T18:51:25;2.35;;;1.67;;
15764;SDS011;7983;50.744;7.086;2022-09-21T18:54:03;2.17;;;1.67;;
15764;SDS011;7983;50.744;7.086;2022-09-21T18:56:33;3.20;;;1.88;;
15764;SDS011;7983;50.744;7.086;2022-09-21T18:59:01;3.90;;;2.15;;
15764;SDS011;7983;50.744;7.086;2022-09-21T19:01:47;3.80;;;2.20;;
15764;SDS011;7983;50.744;7.086;2022-09-21T19:04:16;29.88;;;19.60;;
15764;SDS011;7983;50.744;7.086;2022-09-21T19:09:36;7.93;;;5.10;;
15764;SDS011;7983;50.744;7.086;2022-09-21T19:25:54;4.50;;;2.20;;
15764;SDS011;7983;50.744;7.086;2022-09-21T19:31:22;2.95;;;2.13;;
15764;SDS011;7983;50.744;7.086;2022-09-21T19:33:51;4.95;;;2.08;;
15764;SDS011;7983;50.744;7.086;2022-09-21T19:36:18;2.92;;;2.17;;
15764;SDS011;7983;50.744;7.086;2022-09-21T19:38:44;4.38;;;2.15;;
15764;SDS011;7983;50.744;7.086;2022-09-21T19:49:52;3.90;;;2.28;;
15764;SDS011;7983;50.744;7.086;2022-09-21T19:52:25;3.42;;;2.03;;
15764;SDS011;7983;50.744;7.086;2022-09-21T19:54:54;4.35;;;2.30;;
15764;SDS011;7983;50.744;7.086;2022-09-21T19:57:39;4.07;;;1.98;;
15764;SDS011;7983;50.744;7.086;2022-09-21T20:00:26;4.72;;;2.15;;
15764;SDS011;7983;50.744;7.086;2022-09-21T20:02:56;3.42;;;2.05;;
15764;SDS011;7983;50.744;7.086;2022-09-21T20:08:16;3.70;;;1.75;;
15764;SDS011;7983;50.744;7.086;2022-09-21T20:21:21;3.05;;;1.92;;
15764;SDS011;7983;50.744;7.086;2022-09-21T20:23:52;3.15;;;2.00;;
15764;SDS011;7983;50.744;7.086;2022-09-21T20:26:24;4.10;;;2.20;;
15764;SDS011;7983;50.744;7.086;2022-09-21T20:28:53;2.72;;;1.90;;